sensor_id;sensor_type;location;lat;lon;timestamp;pressure;altitude;pressure_sealevel;temperature;humidity
35694;BME280;21812;55.536;37.664;2022-07-23T00:00:50;99712.41;;;16.73;76.64
35694;BME280;21812;55.536;37.664;2022-07-23T00:03:15;99719.09;;;16.71;76.50
35694;BME280;21812;55.536;37.664;2022-07-23T00:05:41;99726.75;;;16.74;76.57
35694;BME280;21812;55.536;37.664;2022-07-23T00:08:07;99727.78;;;16.73;76.68
35694;BME280;21812;55.536;37.664;2022-07-23T00:10:35;99725.31;;;16.71;77.37
35694;BME280;21812;55.536;37.664;2022-07-23T00:13:01;99724.28;;;16.72;77.05
35694;BME280;21812;55.536;37.664;2022-07-23T00:15:27;99720.75;;;16.72;76.88
35694;BME280;21812;55.536;37.664;2022-07-23T00:17:53;99726.84;;;16.79;77.04
35694;BME280;21812;55.536;37.664;2022-07-23T00:20:19;99727.25;;;16.83;76.63
35694;BME280;21812;55.536;37.664;2022-07-23T00:22:54;99722.81;;;16.88;76.98
35694;BME280;21812;55.536;37.664;2022-07-23T00:25:21;99734.31;;;16.84;76.89
35694;BME280;21812;55.536;37.664;2022-07-23T00:27:47;99723.50;;;16.84;76.93
35694;BME280;21812;55.536;37.664;2022-07-23T00:30:12;99717.81;;;16.73;76.59
35694;BME280;21812;55.536;37.664;2022-07-23T00:32:50;99703.16;;;16.69;76.88
35694;BME280;21812;55.536;37.664;2022-07-23T00:35:18;99728.97;;;16.77;76.62
35694;BME280;21812;55.536;37.664;2022-07-23T00:37:44;99715.38;;;16.72;76.99
35694;BME280;21812;55.536;37.664;2022-07-23T00:40:11;99695.03;;;16.57;77.18
35694;BME280;21812;55.536;37.664;2022-07-23T00:42:37;99725.31;;;16.71;77.41
35694;BME280;21812;55.536;37.664;2022-07-23T00:45:04;99718.28;;;16.70;77.38
35694;BME280;21812;55.536;37.664;2022-07-23T00:47:31;99719.56;;;16.68;77.17
35694;BME280;21812;55.536;37.664;2022-07-23T00:49:56;99719.81;;;16.66;77.33
35694;BME280;21812;55.536;37.664;2022-07-23T00:52:22;99722.59;;;16.59;77.55
35694;BME280;21812;55.536;37.664;2022-07-23T00:54:49;99731.38;;;16.55;78.22
35694;BME280;21812;55.536;37.664;2022-07-23T00:57:15;99733.84;;;16.56;77.88
35694;BME280;21812;55.536;37.664;2022-07-23T00:59:41;99738.38;;;16.56;77.82
35694;BME280;21812;55.536;37.664;2022-07-23T01:02:07;99735.91;;;16.54;77.41
35694;BME280;21812;55.536;37.664;2022-07-23T01:04:33;99716.78;;;16.44;77.33
35694;BME280;21812;55.536;37.664;2022-07-23T01:06:59;99724.28;;;16.42;77.54
35694;BME280;21812;55.536;37.664;2022-07-23T01:09:26;99728.53;;;16.50;77.88
35694;BME280;21812;55.536;37.664;2022-07-23T01:11:54;99692.94;;;16.29;77.69
35694;BME280;21812;55.536;37.664;2022-07-23T01:14:22;99724.22;;;16.49;78.07
35694;BME280;21812;55.536;37.664;2022-07-23T01:16:49;99722.69;;;16.53;78.58
35694;BME280;21812;55.536;37.664;2022-07-23T01:19:16;99688.28;;;16.36;78.34
35694;BME280;21812;55.536;37.664;2022-07-23T01:21:44;99713.94;;;16.69;79.27
35694;BME280;21812;55.536;37.664;2022-07-23T01:24:12;99703.03;;;16.64;77.79
35694;BME280;21812;55.536;37.664;2022-07-23T01:26:46;99685.16;;;16.39;77.47
35694;BME280;21812;55.536;37.664;2022-07-23T01:29:13;99724.47;;;16.59;77.73
35694;BME280;21812;55.536;37.664;2022-07-23T01:31:40;99730.00;;;16.64;77.78
35694;BME280;21812;55.536;37.664;2022-07-23T01:34:06;99731.63;;;16.65;77.65
35694;BME280;21812;55.536;37.664;2022-07-23T01:36:36;99726.16;;;16.72;77.63
35694;BME280;21812;55.536;37.664;2022-07-23T01:39:04;99691.97;;;16.54;78.27
35694;BME280;21812;55.536;37.664;2022-07-23T01:41:30;99715.22;;;16.67;77.38
35694;BME280;21812;55.536;37.664;2022-07-23T01:43:56;99729.81;;;16.77;78.15
35694;BME280;21812;55.536;37.664;2022-07-23T01:46:22;99720.50;;;16.73;76.99
35694;BME280;21812;55.536;37.664;2022-07-23T01:48:49;99725.78;;;16.68;77.17
35694;BME280;21812;55.536;37.664;2022-07-23T01:51:35;99719.56;;;16.68;78.06
35694;BME280;21812;55.536;37.664;2022-07-23T01:54:08;99726.72;;;16.62;78.32
35694;BME280;21812;55.536;37.664;2022-07-23T01:56:34;99722.22;;;16.56;78.43
35694;BME280;21812;55.536;37.664;2022-07-23T01:58:59;99719.28;;;16.57;77.72
35694;BME280;21812;55.536;37.664;2022-07-23T02:01:25;99717.94;;;16.67;77.64
35694;BME280;21812;55.536;37.664;2022-07-23T02:03:51;99720.75;;;16.72;78.02
35694;BME280;21812;55.536;37.664;2022-07-23T02:06:17;99720.00;;;16.83;77.74
35694;BME280;21812;55.536;37.664;2022-07-23T02:08:44;99718.13;;;16.84;77.26
35694;BME280;21812;55.536;37.664;2022-07-23T02:11:09;99721.78;;;16.89;77.82
35694;BME280;21812;55.536;37.664;2022-07-23T02:13:35;99720.97;;;16.89;78.39
35694;BME280;21812;55.536;37.664;2022-07-23T02:16:01;99723.50;;;16.84;78.15
35694;BME280;21812;55.536;37.664;2022-07-23T02:18:28;99722.59;;;16.90;80.59
35694;BME280;21812;55.536;37.664;2022-07-23T02:20:54;99717.44;;;17.00;78.46
35694;BME280;21812;55.536;37.664;2022-07-23T02:23:19;99717.94;;;17.20;80.73
35694;BME280;21812;55.536;37.664;2022-07-23T02:25:45;99713.00;;;17.17;78.16
35694;BME280;21812;55.536;37.664;2022-07-23T02:28:11;99723.09;;;17.22;76.98
35694;BME280;21812;55.536;37.664;2022-07-23T02:30:36;99719.59;;;17.22;77.11
35694;BME280;21812;55.536;37.664;2022-07-23T02:33:03;99720.53;;;17.15;77.43
35694;BME280;21812;55.536;37.664;2022-07-23T02:35:29;99716.03;;;17.09;77.52
35694;BME280;21812;55.536;37.664;2022-07-23T02:38:00;99722.97;;;17.05;78.42
35694;BME280;21812;55.536;37.664;2022-07-23T02:40:26;99712.66;;;17.02;78.71
35694;BME280;21812;55.536;37.664;2022-07-23T02:42:59;99728.94;;;17.19;77.32
35694;BME280;21812;55.536;37.664;2022-07-23T02:45:25;99719.00;;;17.43;80.34
35694;BME280;21812;55.536;37.664;2022-07-23T02:47:53;99719.47;;;17.52;77.54
35694;BME280;21812;55.536;37.664;2022-07-23T02:50:21;99726.72;;;17.51;76.91
35694;BME280;21812;55.536;37.664;2022-07-23T02:52:47;99726.63;;;17.46;77.13
35694;BME280;21812;55.536;37.664;2022-07-23T02:55:13;99724.63;;;17.53;78.94
35694;BME280;21812;55.536;37.664;2022-07-23T02:57:38;99729.19;;;17.65;76.96
35694;BME280;21812;55.536;37.664;2022-07-23T03:00:05;99732.00;;;17.70;76.84
35694;BME280;21812;55.536;37.664;2022-07-23T03:02:34;99731.63;;;17.78;76.59
35694;BME280;21812;55.536;37.664;2022-07-23T03:04:59;99730.59;;;17.79;76.03
35694;BME280;21812;55.536;37.664;2022-07-23T03:07:28;99737.66;;;17.80;75.27
35694;BME280;21812;55.536;37.664;2022-07-23T03:09:54;99733.44;;;17.84;75.06
35694;BME280;21812;55.536;37.664;2022-07-23T03:12:22;99731.09;;;17.88;74.65
35694;BME280;21812;55.536;37.664;2022-07-23T03:14:49;99731.19;;;17.93;74.36
35694;BME280;21812;55.536;37.664;2022-07-23T03:17:14;99731.06;;;18.00;74.60
35694;BME280;21812;55.536;37.664;2022-07-23T03:19:40;99739.84;;;18.07;74.25
35694;BME280;21812;55.536;37.664;2022-07-23T03:22:08;99736.78;;;18.15;74.31
35694;BME280;21812;55.536;37.664;2022-07-23T03:24:33;99736.88;;;18.20;73.78
35694;BME280;21812;55.536;37.664;2022-07-23T03:27:19;99740.34;;;18.32;75.44
35694;BME280;21812;55.536;37.664;2022-07-23T03:29:46;99732.13;;;18.27;73.64
35694;BME280;21812;55.536;37.664;2022-07-23T03:32:11;99727.41;;;18.34;73.94
35694;BME280;21812;55.536;37.664;2022-07-23T03:34:38;99754.06;;;18.43;73.68
35694;BME280;21812;55.536;37.664;2022-07-23T03:37:04;99749.22;;;18.45;73.81
35694;BME280;21812;55.536;37.664;2022-07-23T03:39:29;99746.97;;;18.53;73.40
35694;BME280;21812;55.536;37.664;2022-07-23T03:41:55;99740.59;;;18.60;73.27
35694;BME280;21812;55.536;37.664;2022-07-23T03:44:21;99744.97;;;18.78;74.50
35694;BME280;21812;55.536;37.664;2022-07-23T03:46:47;99737.75;;;18.95;74.91
35694;BME280;21812;55.536;37.664;2022-07-23T03:49:13;99742.16;;;19.01;72.66
35694;BME280;21812;55.536;37.664;2022-07-23T03:51:38;99741.75;;;19.09;73.99
35694;BME280;21812;55.536;37.664;2022-07-23T03:54:04;99729.44;;;19.02;73.02
35694;BME280;21812;55.536;37.664;2022-07-23T03:56:31;99744.31;;;19.16;75.35
35694;BME280;21812;55.536;37.664;2022-07-23T03:58:56;99743.50;;;19.16;73.08
35694;BME280;21812;55.536;37.664;2022-07-23T04:01:22;99734.28;;;19.17;74.27
35694;BME280;21812;55.536;37.664;2022-07-23T04:03:48;99737.41;;;19.25;74.63
35694;BME280;21812;55.536;37.664;2022-07-23T04:06:14;99737.22;;;19.32;74.13
35694;BME280;21812;55.536;37.664;2022-07-23T04:08:39;99729.34;;;19.47;76.04
35694;BME280;21812;55.536;37.664;2022-07-23T04:11:05;99730.44;;;19.46;75.01
35694;BME280;21812;55.536;37.664;2022-07-23T04:13:31;99741.59;;;19.50;73.08
35694;BME280;21812;55.536;37.664;2022-07-23T04:15:59;99716.09;;;19.29;72.55
35694;BME280;21812;55.536;37.664;2022-07-23T04:18:25;99742.31;;;19.45;73.02
35694;BME280;21812;55.536;37.664;2022-07-23T04:20:56;99745.00;;;19.45;72.36
35694;BME280;21812;55.536;37.664;2022-07-23T04:23:22;99739.78;;;19.56;75.60
35694;BME280;21812;55.536;37.664;2022-07-23T04:25:48;99747.69;;;19.79;75.60
35694;BME280;21812;55.536;37.664;2022-07-23T04:28:15;99733.78;;;19.92;75.22
35694;BME280;21812;55.536;37.664;2022-07-23T04:30:41;99738.19;;;19.99;71.76
35694;BME280;21812;55.536;37.664;2022-07-23T04:33:08;99732.47;;;20.17;74.08
35694;BME280;21812;55.536;37.664;2022-07-23T04:35:36;99728.56;;;20.08;71.18
35694;BME280;21812;55.536;37.664;2022-07-23T04:38:11;99743.75;;;20.09;70.17
35694;BME280;21812;55.536;37.664;2022-07-23T04:40:37;99725.22;;;20.01;70.35
35694;BME280;21812;55.536;37.664;2022-07-23T04:43:03;99733.16;;;20.07;70.00
35694;BME280;21812;55.536;37.664;2022-07-23T04:45:33;99722.06;;;20.09;69.93
35694;BME280;21812;55.536;37.664;2022-07-23T04:47:58;99731.34;;;20.13;69.79
35694;BME280;21812;55.536;37.664;2022-07-23T04:50:24;99727.28;;;20.16;69.82
35694;BME280;21812;55.536;37.664;2022-07-23T04:52:55;99728.16;;;20.21;70.11
35694;BME280;21812;55.536;37.664;2022-07-23T04:55:24;99717.66;;;20.25;71.87
35694;BME280;21812;55.536;37.664;2022-07-23T04:57:49;99721.34;;;20.41;72.26
35694;BME280;21812;55.536;37.664;2022-07-23T05:00:15;99725.03;;;20.57;72.32
35694;BME280;21812;55.536;37.664;2022-07-23T05:02:41;99723.25;;;20.67;72.41
35694;BME280;21812;55.536;37.664;2022-07-23T05:05:08;99713.75;;;20.65;71.68
35694;BME280;21812;55.536;37.664;2022-07-23T05:07:34;99717.81;;;20.62;69.00
35694;BME280;21812;55.536;37.664;2022-07-23T05:10:02;99712.38;;;20.62;71.26
35694;BME280;21812;55.536;37.664;2022-07-23T05:12:29;99722.81;;;20.76;71.79
35694;BME280;21812;55.536;37.664;2022-07-23T05:14:55;99711.41;;;20.74;68.86
35694;BME280;21812;55.536;37.664;2022-07-23T05:17:21;99718.75;;;20.78;70.87
35694;BME280;21812;55.536;37.664;2022-07-23T05:19:47;99671.00;;;20.50;71.37
35694;BME280;21812;55.536;37.664;2022-07-23T05:22:12;99718.56;;;20.85;69.13
35694;BME280;21812;55.536;37.664;2022-07-23T05:24:38;99703.47;;;20.67;68.45
35694;BME280;21812;55.536;37.664;2022-07-23T05:27:07;99715.56;;;20.86;70.63
35694;BME280;21812;55.536;37.664;2022-07-23T05:29:33;99721.97;;;21.02;71.37
35694;BME280;21812;55.536;37.664;2022-07-23T05:31:59;99722.53;;;21.04;68.05
35694;BME280;21812;55.536;37.664;2022-07-23T05:34:25;99710.53;;;21.00;67.61
35694;BME280;21812;55.536;37.664;2022-07-23T05:36:50;99719.56;;;21.11;70.33
35694;BME280;21812;55.536;37.664;2022-07-23T05:39:16;99714.13;;;21.11;67.06
35694;BME280;21812;55.536;37.664;2022-07-23T05:41:43;99714.13;;;21.11;67.57
35694;BME280;21812;55.536;37.664;2022-07-23T05:44:11;99715.50;;;21.08;66.83
35694;BME280;21812;55.536;37.664;2022-07-23T05:46:39;99719.63;;;21.16;67.78
35694;BME280;21812;55.536;37.664;2022-07-23T05:49:07;99719.91;;;21.20;69.52
35694;BME280;21812;55.536;37.664;2022-07-23T05:52:03;99727.03;;;21.26;69.91
35694;BME280;21812;55.536;37.664;2022-07-23T05:54:45;99691.41;;;21.22;70.02
35694;BME280;21812;55.536;37.664;2022-07-23T05:57:10;99714.34;;;21.37;67.00
35694;BME280;21812;55.536;37.664;2022-07-23T05:59:36;99706.94;;;21.27;65.81
35694;BME280;21812;55.536;37.664;2022-07-23T06:02:02;99725.41;;;21.25;66.12
35694;BME280;21812;55.536;37.664;2022-07-23T06:04:28;99725.41;;;21.25;69.13
35694;BME280;21812;55.536;37.664;2022-07-23T06:07:19;99708.06;;;21.31;69.45
35694;BME280;21812;55.536;37.664;2022-07-23T06:09:46;99715.69;;;21.39;66.64
35694;BME280;21812;55.536;37.664;2022-07-23T06:12:12;99717.34;;;21.40;67.00
35694;BME280;21812;55.536;37.664;2022-07-23T06:14:38;99709.25;;;21.45;69.13
35694;BME280;21812;55.536;37.664;2022-07-23T06:17:04;99707.19;;;21.63;69.29
35694;BME280;21812;55.536;37.664;2022-07-23T06:19:30;99705.59;;;21.72;68.75
35694;BME280;21812;55.536;37.664;2022-07-23T06:21:56;99698.56;;;21.81;67.99
35694;BME280;21812;55.536;37.664;2022-07-23T06:24:21;99702.97;;;21.93;67.88
35694;BME280;21812;55.536;37.664;2022-07-23T06:26:49;99708.41;;;21.93;64.81
35694;BME280;21812;55.536;37.664;2022-07-23T06:29:15;99706.78;;;21.97;65.07
35694;BME280;21812;55.536;37.664;2022-07-23T06:31:41;99693.69;;;21.83;63.87
35694;BME280;21812;55.536;37.664;2022-07-23T06:34:07;99703.53;;;21.90;66.84
35694;BME280;21812;55.536;37.664;2022-07-23T06:36:35;99705.44;;;21.94;65.82
35694;BME280;21812;55.536;37.664;2022-07-23T06:39:00;99702.72;;;21.94;66.70
35694;BME280;21812;55.536;37.664;2022-07-23T06:41:26;99700.03;;;22.04;66.94
35694;BME280;21812;55.536;37.664;2022-07-23T06:43:52;99701.41;;;22.12;66.63
35694;BME280;21812;55.536;37.664;2022-07-23T06:46:20;99698.19;;;22.20;66.44
35694;BME280;21812;55.536;37.664;2022-07-23T06:48:47;99701.72;;;22.21;66.64
35694;BME280;21812;55.536;37.664;2022-07-23T06:51:13;99699.28;;;22.24;65.25
35694;BME280;21812;55.536;37.664;2022-07-23T06:53:39;99694.44;;;22.32;65.89
35694;BME280;21812;55.536;37.664;2022-07-23T06:56:04;99697.72;;;22.39;64.05
35694;BME280;21812;55.536;37.664;2022-07-23T06:58:32;99696.63;;;22.30;61.83
35694;BME280;21812;55.536;37.664;2022-07-23T07:00:58;99696.03;;;22.22;61.33
35694;BME280;21812;55.536;37.664;2022-07-23T07:03:24;99696.56;;;22.24;64.63
35694;BME280;21812;55.536;37.664;2022-07-23T07:05:49;99689.53;;;22.29;65.07
35694;BME280;21812;55.536;37.664;2022-07-23T07:08:16;99702.34;;;22.38;64.90
35694;BME280;21812;55.536;37.664;2022-07-23T07:10:41;99699.34;;;22.35;61.46
35694;BME280;21812;55.536;37.664;2022-07-23T07:13:07;99697.97;;;22.32;64.38
35694;BME280;21812;55.536;37.664;2022-07-23T07:15:33;99695.81;;;22.34;61.31
35694;BME280;21812;55.536;37.664;2022-07-23T07:17:58;99696.34;;;22.36;63.73
35694;BME280;21812;55.536;37.664;2022-07-23T07:20:26;99703.44;;;22.37;62.55
35694;BME280;21812;55.536;37.664;2022-07-23T07:22:52;99696.63;;;22.50;64.40
35694;BME280;21812;55.536;37.664;2022-07-23T07:25:18;99697.75;;;22.54;61.07
35694;BME280;21812;55.536;37.664;2022-07-23T07:27:43;99695.84;;;22.55;59.55
35694;BME280;21812;55.536;37.664;2022-07-23T07:30:12;99698.84;;;22.58;63.22
35694;BME280;21812;55.536;37.664;2022-07-23T07:32:38;99695.31;;;22.63;61.97
35694;BME280;21812;55.536;37.664;2022-07-23T07:35:04;99697.50;;;22.66;63.08
35694;BME280;21812;55.536;37.664;2022-07-23T07:37:33;99695.31;;;22.63;58.84
35694;BME280;21812;55.536;37.664;2022-07-23T07:39:58;99698.31;;;22.67;62.57
35694;BME280;21812;55.536;37.664;2022-07-23T07:42:24;99687.69;;;22.65;62.52
35694;BME280;21812;55.536;37.664;2022-07-23T07:44:50;99697.78;;;22.70;56.76
35694;BME280;21812;55.536;37.664;2022-07-23T07:47:16;99680.88;;;22.57;56.55
35694;BME280;21812;55.536;37.664;2022-07-23T07:49:44;99693.94;;;22.65;56.54
35694;BME280;21812;55.536;37.664;2022-07-23T07:52:10;99699.13;;;22.72;60.58
35694;BME280;21812;55.536;37.664;2022-07-23T07:54:36;99698.88;;;22.74;59.14
35694;BME280;21812;55.536;37.664;2022-07-23T07:57:02;99695.59;;;22.77;57.53
35694;BME280;21812;55.536;37.664;2022-07-23T07:59:27;99699.41;;;22.86;62.04
35694;BME280;21812;55.536;37.664;2022-07-23T08:01:53;99692.34;;;22.85;56.06
35694;BME280;21812;55.536;37.664;2022-07-23T08:04:19;99696.94;;;22.84;59.38
35694;BME280;21812;55.536;37.664;2022-07-23T08:06:45;99693.97;;;22.91;59.51
35694;BME280;21812;55.536;37.664;2022-07-23T08:09:10;99697.50;;;23.02;61.32
35694;BME280;21812;55.536;37.664;2022-07-23T08:11:36;99701.09;;;23.08;61.38
35694;BME280;21812;55.536;37.664;2022-07-23T08:14:02;99695.06;;;23.11;56.45
35694;BME280;21812;55.536;37.664;2022-07-23T08:16:28;99697.00;;;23.15;60.60
35694;BME280;21812;55.536;37.664;2022-07-23T08:18:53;99688.56;;;23.12;60.77
35694;BME280;21812;55.536;37.664;2022-07-23T08:21:22;99696.16;;;23.15;58.65
35694;BME280;21812;55.536;37.664;2022-07-23T08:23:47;99701.59;;;23.15;59.45
35694;BME280;21812;55.536;37.664;2022-07-23T08:26:13;99698.59;;;23.16;54.08
35694;BME280;21812;55.536;37.664;2022-07-23T08:28:39;99694.50;;;23.24;60.21
35694;BME280;21812;55.536;37.664;2022-07-23T08:31:04;99696.16;;;23.25;57.44
35694;BME280;21812;55.536;37.664;2022-07-23T08:33:31;99685.25;;;23.15;55.60
35694;BME280;21812;55.536;37.664;2022-07-23T08:35:57;99673.84;;;23.08;54.79
35694;BME280;21812;55.536;37.664;2022-07-23T08:38:24;99696.41;;;23.18;53.76
35694;BME280;21812;55.536;37.664;2022-07-23T08:40:52;99697.81;;;23.21;56.06
35694;BME280;21812;55.536;37.664;2022-07-23T08:43:20;99688.25;;;23.29;58.83
35694;BME280;21812;55.536;37.664;2022-07-23T08:45:49;99685.50;;;23.39;59.44
35694;BME280;21812;55.536;37.664;2022-07-23T08:48:21;99678.13;;;23.45;59.23
35694;BME280;21812;55.536;37.664;2022-07-23T08:50:50;99684.13;;;23.52;58.63
35694;BME280;21812;55.536;37.664;2022-07-23T08:53:17;99673.16;;;23.62;53.09
35694;BME280;21812;55.536;37.664;2022-07-23T08:55:48;99675.31;;;23.70;52.54
35694;BME280;21812;55.536;37.664;2022-07-23T08:58:14;99670.13;;;23.74;52.65
35694;BME280;21812;55.536;37.664;2022-07-23T09:00:41;99656.81;;;23.72;50.96
35694;BME280;21812;55.536;37.664;2022-07-23T09:03:07;99666.88;;;23.82;51.75
35694;BME280;21812;55.536;37.664;2022-07-23T09:05:33;99664.69;;;23.84;58.28
35694;BME280;21812;55.536;37.664;2022-07-23T09:08:11;99669.56;;;23.87;57.03
35694;BME280;21812;55.536;37.664;2022-07-23T09:10:58;99639.88;;;23.75;57.99
35694;BME280;21812;55.536;37.664;2022-07-23T09:16:01;99667.00;;;24.11;56.89
35694;BME280;21812;55.536;37.664;2022-07-23T09:18:36;99666.97;;;24.16;54.89
35694;BME280;21812;55.536;37.664;2022-07-23T09:21:25;99665.91;;;24.12;51.68
35694;BME280;21812;55.536;37.664;2022-07-23T09:23:58;99660.50;;;24.02;50.63
35694;BME280;21812;55.536;37.664;2022-07-23T09:26:41;99642.00;;;23.89;51.30
35694;BME280;21812;55.536;37.664;2022-07-23T09:29:15;99659.88;;;24.15;51.23
35694;BME280;21812;55.536;37.664;2022-07-23T09:31:45;99658.44;;;24.28;50.60
35694;BME280;21812;55.536;37.664;2022-07-23T09:34:18;99650.25;;;24.28;49.00
35694;BME280;21812;55.536;37.664;2022-07-23T09:36:45;99652.19;;;24.23;49.52
35694;BME280;21812;55.536;37.664;2022-07-23T09:39:12;99656.88;;;24.17;48.50
35694;BME280;21812;55.536;37.664;2022-07-23T09:41:43;99640.56;;;24.07;49.10
35694;BME280;21812;55.536;37.664;2022-07-23T09:44:12;99647.91;;;24.11;48.71
35694;BME280;21812;55.536;37.664;2022-07-23T09:46:38;99652.72;;;24.30;48.98
35694;BME280;21812;55.536;37.664;2022-07-23T09:49:21;99645.19;;;24.51;50.50
35694;BME280;21812;55.536;37.664;2022-07-23T09:51:59;99643.97;;;24.72;51.54
35694;BME280;21812;55.536;37.664;2022-07-23T09:54:32;99613.69;;;24.69;50.03
35694;BME280;21812;55.536;37.664;2022-07-23T09:57:02;99616.50;;;24.88;48.63
35694;BME280;21812;55.536;37.664;2022-07-23T09:59:32;99618.28;;;25.03;47.85
35694;BME280;21812;55.536;37.664;2022-07-23T10:02:00;99601.84;;;25.08;47.82
35694;BME280;21812;55.536;37.664;2022-07-23T10:04:29;99624.81;;;25.36;47.47
35694;BME280;21812;55.536;37.664;2022-07-23T10:07:36;99567.25;;;25.27;47.52
35694;BME280;21812;55.536;37.664;2022-07-23T10:10:40;99629.75;;;26.01;46.50
35694;BME280;21812;55.536;37.664;2022-07-23T10:13:33;99633.00;;;26.22;46.93
35694;BME280;21812;55.536;37.664;2022-07-23T10:16:01;99629.75;;;26.39;46.68
35694;BME280;21812;55.536;37.664;2022-07-23T10:18:27;99626.84;;;26.49;46.42
35694;BME280;21812;55.536;37.664;2022-07-23T10:20:53;99628.78;;;26.68;45.61
35694;BME280;21812;55.536;37.664;2022-07-23T10:26:24;99597.44;;;26.03;44.43
35694;BME280;21812;55.536;37.664;2022-07-23T10:31:50;99628.19;;;26.14;44.77
35694;BME280;21812;55.536;37.664;2022-07-23T10:34:24;99622.06;;;26.41;46.29
35694;BME280;21812;55.536;37.664;2022-07-23T10:36:55;99624.69;;;26.65;43.13
35694;BME280;21812;55.536;37.664;2022-07-23T10:39:24;99596.75;;;26.82;43.61
35694;BME280;21812;55.536;37.664;2022-07-23T10:42:11;99598.41;;;27.11;43.58
35694;BME280;21812;55.536;37.664;2022-07-23T10:44:45;99606.97;;;27.51;45.39
35694;BME280;21812;55.536;37.664;2022-07-23T10:47:12;99599.34;;;27.62;43.70
35694;BME280;21812;55.536;37.664;2022-07-23T10:49:46;99595.56;;;27.72;40.98
35694;BME280;21812;55.536;37.664;2022-07-23T10:52:23;99589.25;;;27.99;43.13
35694;BME280;21812;55.536;37.664;2022-07-23T10:54:51;99589.34;;;28.30;41.94
35694;BME280;21812;55.536;37.664;2022-07-23T10:57:21;99589.06;;;28.54;40.21
35694;BME280;21812;55.536;37.664;2022-07-23T11:02:48;99589.13;;;28.94;42.03
35694;BME280;21812;55.536;37.664;2022-07-23T11:05:25;99585.13;;;29.09;42.22
35694;BME280;21812;55.536;37.664;2022-07-23T11:10:36;99593.31;;;28.92;41.39
35694;BME280;21812;55.536;37.664;2022-07-23T11:24:09;99550.91;;;28.75;38.97
35694;BME280;21812;55.536;37.664;2022-07-23T11:31:56;99564.31;;;29.57;40.09
35694;BME280;21812;55.536;37.664;2022-07-23T11:34:33;99541.13;;;29.49;37.68
35694;BME280;21812;55.536;37.664;2022-07-23T11:36:59;99571.63;;;29.96;37.27
35694;BME280;21812;55.536;37.664;2022-07-23T11:39:27;99565.66;;;30.12;37.35
35694;BME280;21812;55.536;37.664;2022-07-23T11:41:54;99574.03;;;30.68;37.95
35694;BME280;21812;55.536;37.664;2022-07-23T11:44:28;99551.16;;;30.76;37.63
35694;BME280;21812;55.536;37.664;2022-07-23T11:47:02;99557.28;;;30.82;35.00
35694;BME280;21812;55.536;37.664;2022-07-23T11:49:28;99565.44;;;30.69;36.35
35694;BME280;21812;55.536;37.664;2022-07-23T11:52:14;99552.31;;;30.75;36.19
35694;BME280;21812;55.536;37.664;2022-07-23T11:54:49;99556.63;;;30.93;34.94
35694;BME280;21812;55.536;37.664;2022-07-23T11:57:15;99558.94;;;31.21;35.56
35694;BME280;21812;55.536;37.664;2022-07-23T11:59:42;99554.59;;;31.41;33.94
35694;BME280;21812;55.536;37.664;2022-07-23T12:02:08;99560.66;;;31.64;33.01
35694;BME280;21812;55.536;37.664;2022-07-23T12:04:46;99556.00;;;31.77;32.60
35694;BME280;21812;55.536;37.664;2022-07-23T12:09:58;99530.44;;;31.68;33.20
35694;BME280;21812;55.536;37.664;2022-07-23T12:12:25;99544.81;;;32.03;32.87
35694;BME280;21812;55.536;37.664;2022-07-23T12:14:58;99517.69;;;31.96;32.34
35694;BME280;21812;55.536;37.664;2022-07-23T12:17:43;99541.56;;;32.34;34.01
35694;BME280;21812;55.536;37.664;2022-07-23T12:20:14;99524.25;;;32.46;32.48
35694;BME280;21812;55.536;37.664;2022-07-23T12:22:46;99536.47;;;32.58;32.14
35694;BME280;21812;55.536;37.664;2022-07-23T12:25:19;99526.31;;;32.49;31.49
35694;BME280;21812;55.536;37.664;2022-07-23T12:27:45;99534.78;;;32.32;32.98
35694;BME280;21812;55.536;37.664;2022-07-23T12:30:22;99526.59;;;31.81;32.76
35694;BME280;21812;55.536;37.664;2022-07-23T12:32:50;99542.19;;;31.26;34.40
35694;BME280;21812;55.536;37.664;2022-07-23T12:35:17;99539.38;;;31.05;35.44
35694;BME280;21812;55.536;37.664;2022-07-23T12:37:44;99521.03;;;31.39;35.48
35694;BME280;21812;55.536;37.664;2022-07-23T12:40:27;99537.09;;;31.37;33.68
35694;BME280;21812;55.536;37.664;2022-07-23T12:43:01;99534.63;;;30.67;36.25
35694;BME280;21812;55.536;37.664;2022-07-23T12:45:28;99532.78;;;30.24;37.71
35694;BME280;21812;55.536;37.664;2022-07-23T12:48:06;99532.94;;;29.67;36.45
35694;BME280;21812;55.536;37.664;2022-07-23T12:50:49;99530.28;;;29.53;37.27
35694;BME280;21812;55.536;37.664;2022-07-23T12:53:17;99540.94;;;29.37;37.86
35694;BME280;21812;55.536;37.664;2022-07-23T12:55:45;99511.97;;;29.13;38.02
35694;BME280;21812;55.536;37.664;2022-07-23T12:58:19;99480.19;;;29.07;39.78
35694;BME280;21812;55.536;37.664;2022-07-23T13:03:22;99521.19;;;29.26;39.08
35694;BME280;21812;55.536;37.664;2022-07-23T13:05:49;99520.19;;;29.13;39.59
35694;BME280;21812;55.536;37.664;2022-07-23T13:08:14;99521.28;;;29.03;39.13
35694;BME280;21812;55.536;37.664;2022-07-23T13:10:40;99522.38;;;29.51;39.32
35694;BME280;21812;55.536;37.664;2022-07-23T13:13:12;99515.28;;;29.68;38.35
35694;BME280;21812;55.536;37.664;2022-07-23T13:15:38;99511.69;;;29.58;39.94
35694;BME280;21812;55.536;37.664;2022-07-23T13:18:03;99506.84;;;29.55;37.69
35694;BME280;21812;55.536;37.664;2022-07-23T13:20:29;99509.16;;;29.88;37.79
35694;BME280;21812;55.536;37.664;2022-07-23T13:22:57;99508.78;;;30.89;38.72
35694;BME280;21812;55.536;37.664;2022-07-23T13:25:23;99504.13;;;31.49;35.48
35694;BME280;21812;55.536;37.664;2022-07-23T13:27:48;99488.09;;;31.85;33.24
35694;BME280;21812;55.536;37.664;2022-07-23T13:30:14;99500.84;;;32.31;32.13
35694;BME280;21812;55.536;37.664;2022-07-23T13:32:40;99494.31;;;32.48;32.16